Time;durP1;ratioP1;P1;durP2;ratioP2;P2;SDS_P1;SDS_P2;PMS_P1;PMS_P2;Temp;Humidity;BMP_temperature;BMP_pressure;BME280_temperature;BME280_humidity;BME280_pressure;Samples;Min_cycle;Max_cycle;Signal;HPM_P1;HPM_P2
2022/07/07 00:01:16;;;;;;;;;;;;;;;17.05;79.08;102015.75;5081060;28;19919;-55
2022/07/07 00:03:41;;;;;;;;;;;;;;;17.04;78.73;102012.22;5086732;28;19973;-55
2022/07/07 00:06:06;;;;;;;;;;;;;;;17.04;79.01;102004.19;5086982;28;19915;-55
2022/07/07 00:08:31;;;;;;;;;;;;;;;17.06;78.92;102005.84;5086592;28;19915;-54
2022/07/07 00:10:56;;;;;;;;;;;;;;;17.06;78.63;102001.34;5086540;28;19920;-56
2022/07/07 00:13:22;;;;;;;;;;;;;;;17.07;78.88;102003.00;5083308;28;19916;-55
2022/07/07 00:15:47;;;;;;;;;;;;;;;17.07;79.07;102003.00;5085285;28;19929;-54
2022/07/07 00:18:12;;;;;;;;;;;;;;;17.07;79.21;101994.13;5084214;28;19908;-55
2022/07/07 00:20:38;;;;;;;;;;;;;;;17.07;79.24;101994.13;5087847;28;19908;-55
2022/07/07 00:23:03;;;;;;;;;;;;;;;17.06;79.07;101982.56;5084502;28;19920;-54
2022/07/07 00:25:28;;;;;;;;;;;;;;;17.05;79.16;101978.16;5084897;28;19947;-52
2022/07/07 00:27:54;;;;;;;;;;;;;;;17.03;78.98;101964.94;5086174;28;19916;-55
2022/07/07 00:30:19;;;;;;;;;;;;;;;17.03;79.14;101962.25;5086506;28;19947;-54
2022/07/07 00:32:44;;;;;;;;;;;;;;;17.02;79.19;101963.28;5083003;28;20147;-55
2022/07/07 00:35:09;;;;;;;;;;;;;;;17.02;79.30;101968.66;5077084;28;20441;-54
2022/07/07 00:37:34;;;;;;;;;;;;;;;17.02;79.27;101974.00;5077153;28;19918;-55
2022/07/07 00:40:00;;;;;;;;;;;;;;;17.02;79.31;101963.28;5087131;28;19912;-55
2022/07/07 00:42:25;;;;;;;;;;;;;;;17.02;79.47;101962.44;5084227;28;19911;-55
2022/07/07 00:44:50;;;;;;;;;;;;;;;17.00;79.62;101965.31;5086971;28;19908;-55
2022/07/07 00:47:15;;;;;;;;;;;;;;;16.99;79.52;101957.44;5078711;28;20003;-56
2022/07/07 00:49:41;;;;;;;;;;;;;;;16.97;79.96;101954.94;5076307;28;19918;-53
2022/07/07 00:52:07;;;;;;;;;;;;;;;16.98;79.79;101947.72;5080086;28;19959;-53
2022/07/07 00:54:33;;;;;;;;;;;;;;;16.97;80.26;101943.38;5083179;28;20014;-56
2022/07/07 00:56:58;;;;;;;;;;;;;;;16.94;79.96;101939.22;5081075;28;20015;-55
2022/07/07 00:59:23;;;;;;;;;;;;;;;16.96;80.24;101942.56;5081849;28;19994;-52
2022/07/07 01:01:48;;;;;;;;;;;;;;;16.95;80.32;101946.25;5079346;28;19969;-53
2022/07/07 01:04:14;;;;;;;;;;;;;;;16.96;80.35;101942.56;5080720;28;19966;-54
2022/07/07 01:06:39;;;;;;;;;;;;;;;16.95;80.21;101940.88;5082260;28;19965;-55
2022/07/07 01:09:05;;;;;;;;;;;;;;;16.98;80.45;101950.41;5081621;28;19912;-56
2022/07/07 01:11:46;;;;;;;;;;;;;;;16.99;80.47;101946.72;5079788;28;19912;-53
2022/07/07 01:14:11;;;;;;;;;;;;;;;17.02;80.12;101949.03;5079843;28;20012;-55
2022/07/07 01:16:36;;;;;;;;;;;;;;;17.02;80.35;101947.16;5080602;28;20010;-55
2022/07/07 01:19:01;;;;;;;;;;;;;;;17.06;80.14;101952.16;5081495;28;19919;-54
2022/07/07 01:21:29;;;;;;;;;;;;;;;17.10;80.09;101946.25;5081693;28;19915;-54
2022/07/07 01:23:55;;;;;;;;;;;;;;;17.11;80.55;101937.19;5082430;28;19936;-55
2022/07/07 01:26:20;;;;;;;;;;;;;;;17.14;80.14;101942.19;5084263;28;20206;-54
2022/07/07 01:28:45;;;;;;;;;;;;;;;17.19;79.72;101938.94;5085182;28;19912;-54
2022/07/07 01:31:10;;;;;;;;;;;;;;;17.18;80.45;101927.38;5083893;28;20302;-55
2022/07/07 01:33:36;;;;;;;;;;;;;;;17.20;80.41;101922.63;5085137;28;19951;-56
2022/07/07 01:36:01;;;;;;;;;;;;;;;17.23;80.45;101926.78;5082798;28;19969;-55
2022/07/07 01:38:26;;;;;;;;;;;;;;;17.28;80.47;101924.38;5086058;28;19911;-55
2022/07/07 01:40:51;;;;;;;;;;;;;;;17.30;80.55;101916.97;5084193;28;19977;-56
2022/07/07 01:43:16;;;;;;;;;;;;;;;17.30;80.23;101917.78;5084289;28;19912;-55
2022/07/07 01:45:41;;;;;;;;;;;;;;;17.34;80.13;101915.56;5084765;28;19923;-56
2022/07/07 01:48:07;;;;;;;;;;;;;;;17.38;79.82;101921.41;5083861;28;20388;-54
2022/07/07 01:50:32;;;;;;;;;;;;;;;17.41;79.76;101911.13;5082038;28;19998;-55
2022/07/07 01:52:58;;;;;;;;;;;;;;;17.41;79.87;101913.81;5082384;28;19919;-53
2022/07/07 01:55:23;;;;;;;;;;;;;;;17.42;80.08;101906.59;5083974;28;19916;-53
2022/07/07 01:57:48;;;;;;;;;;;;;;;17.41;80.04;101912.97;5079750;28;19938;-55
2022/07/07 02:00:15;;;;;;;;;;;;;;;17.43;79.92;101909.06;5084505;28;19908;-55
2022/07/07 02:02:41;;;;;;;;;;;;;;;17.41;80.29;101903.06;5082757;28;19919;-56
2022/07/07 02:05:06;;;;;;;;;;;;;;;17.43;80.24;101901.03;5080504;28;19912;-55
2022/07/07 02:07:33;;;;;;;;;;;;;;;17.45;80.08;101904.34;5084859;28;19961;-55
2022/07/07 02:09:59;;;;;;;;;;;;;;;17.45;80.36;101909.72;5080381;28;19916;-56
2022/07/07 02:12:25;;;;;;;;;;;;;;;17.49;79.85;101908.31;5081951;28;20388;-55
2022/07/07 02:14:50;;;;;;;;;;;;;;;17.51;79.81;101908.13;5084606;28;19916;-55
2022/07/07 02:17:16;;;;;;;;;;;;;;;17.53;79.53;101900.72;5081691;28;19919;-55
2022/07/07 02:19:41;;;;;;;;;;;;;;;17.52;79.72;101915.16;5085108;28;20211;-54
2022/07/07 02:22:06;;;;;;;;;;;;;;;17.54;80.00;101910.44;5082417;28;19912;-56
2022/07/07 02:24:31;;;;;;;;;;;;;;;17.56;79.68;101906.53;5084238;28;19915;-55
2022/07/07 02:26:57;;;;;;;;;;;;;;;17.57;79.63;101902.81;5084420;28;19912;-53
2022/07/07 02:29:22;;;;;;;;;;;;;;;17.57;79.52;101901.97;5083447;28;19920;-56
2022/07/07 02:31:47;;;;;;;;;;;;;;;17.60;79.09;101897.06;5083423;28;20179;-54
2022/07/07 02:34:12;;;;;;;;;;;;;;;17.62;79.21;101900.38;5082926;28;20287;-53
2022/07/07 02:36:38;;;;;;;;;;;;;;;17.63;79.06;101896.66;5084034;28;20342;-55
2022/07/07 02:39:03;;;;;;;;;;;;;;;17.65;78.88;101897.34;5074769;28;20207;-55
2022/07/07 02:41:28;;;;;;;;;;;;;;;17.70;79.02;101904.03;5083117;28;19916;-56
2022/07/07 02:43:53;;;;;;;;;;;;;;;17.68;78.73;101903.38;5082982;28;19912;-54
2022/07/07 02:46:19;;;;;;;;;;;;;;;17.70;78.35;101917.47;5079501;28;19965;-54
2022/07/07 02:48:44;;;;;;;;;;;;;;;17.65;77.58;101908.09;5080986;28;20006;-54
2022/07/07 02:51:09;;;;;;;;;;;;;;;17.63;77.08;101910.09;5083145;28;20325;-55
2022/07/07 02:53:36;;;;;;;;;;;;;;;17.63;76.89;101911.97;5083489;28;20576;-54
2022/07/07 02:56:01;;;;;;;;;;;;;;;17.64;76.57;101919.84;5083123;28;19923;-55
2022/07/07 02:58:27;;;;;;;;;;;;;;;17.64;76.24;101910.97;5083031;28;19912;-55
2022/07/07 03:00:54;;;;;;;;;;;;;;;17.65;76.21;101913.47;5084224;28;19915;-54
2022/07/07 03:03:20;;;;;;;;;;;;;;;17.60;76.10;101913.19;5084116;28;20006;-54
2022/07/07 03:05:45;;;;;;;;;;;;;;;17.56;75.93;101919.94;5082919;28;20043;-54
2022/07/07 03:08:10;;;;;;;;;;;;;;;17.53;75.83;101917.66;5082206;28;19916;-53
2022/07/07 03:10:35;;;;;;;;;;;;;;;17.55;76.07;101923.66;5082998;28;20348;-55
2022/07/07 03:13:00;;;;;;;;;;;;;;;17.48;76.36;101922.75;5083732;28;19955;-54
2022/07/07 03:15:26;;;;;;;;;;;;;;;17.43;76.62;101929.72;5082735;28;19920;-55
2022/07/07 03:17:52;;;;;;;;;;;;;;;17.33;76.71;101921.94;5081987;28;19920;-55
2022/07/07 03:20:17;;;;;;;;;;;;;;;17.24;77.53;101913.19;5080532;28;19918;-55
2022/07/07 03:22:43;;;;;;;;;;;;;;;17.20;77.75;101916.44;5082362;28;20349;-55
2022/07/07 03:25:09;;;;;;;;;;;;;;;17.09;78.17;101914.25;5080261;28;19923;-55
2022/07/07 03:27:34;;;;;;;;;;;;;;;17.02;78.45;101914.13;5084689;28;19912;-55
2022/07/07 03:30:00;;;;;;;;;;;;;;;16.94;78.72;101915.06;5089993;28;19957;-53
2022/07/07 03:32:25;;;;;;;;;;;;;;;16.88;78.76;101912.31;5085630;28;19916;-54
2022/07/07 03:34:50;;;;;;;;;;;;;;;16.81;79.45;101914.91;5087225;28;20017;-56
2022/07/07 03:37:15;;;;;;;;;;;;;;;16.76;79.38;101903.88;5085917;28;19923;-55
2022/07/07 03:39:41;;;;;;;;;;;;;;;16.69;79.66;101903.78;5083161;28;19950;-54
2022/07/07 03:42:06;;;;;;;;;;;;;;;16.62;79.96;101905.53;5080150;28;19912;-55
2022/07/07 03:44:31;;;;;;;;;;;;;;;16.64;80.16;101906.16;5082689;28;19957;-55
2022/07/07 03:46:56;;;;;;;;;;;;;;;16.57;80.13;101907.09;5088773;28;19955;-55
2022/07/07 03:49:21;;;;;;;;;;;;;;;16.49;80.41;101912.56;5085934;28;20316;-55
2022/07/07 03:51:47;;;;;;;;;;;;;;;16.42;81.24;101910.56;5089213;28;20279;-54
2022/07/07 03:54:12;;;;;;;;;;;;;;;16.38;81.51;101901.25;5088100;28;19908;-54
2022/07/07 03:56:38;;;;;;;;;;;;;;;16.33;81.66;101909.00;5087605;28;19981;-55
2022/07/07 03:59:03;;;;;;;;;;;;;;;16.29;82.05;101917.59;5087066;28;19919;-55
2022/07/07 04:01:28;;;;;;;;;;;;;;;16.24;82.16;101904.75;5083380;28;19908;-54
2022/07/07 04:03:53;;;;;;;;;;;;;;;16.22;82.05;101904.09;5086913;28;19944;-54
2022/07/07 04:06:19;;;;;;;;;;;;;;;16.21;82.19;101893.56;5086735;28;19919;-55
2022/07/07 04:08:44;;;;;;;;;;;;;;;16.16;83.17;101885.19;5087631;28;19908;-53
2022/07/07 04:11:09;;;;;;;;;;;;;;;16.11;84.21;101883.06;5085924;28;19953;-55
2022/07/07 04:13:34;;;;;;;;;;;;;;;16.09;84.53;101885.09;5088279;28;19908;-54
2022/07/07 04:15:59;;;;;;;;;;;;;;;16.11;83.69;101891.09;5088189;28;20387;-54
2022/07/07 04:18:25;;;;;;;;;;;;;;;16.10;83.49;101886.75;5088130;28;19981;-55
2022/07/07 04:20:50;;;;;;;;;;;;;;;16.10;84.23;101884.91;5085146;28;20515;-54
2022/07/07 04:23:15;;;;;;;;;;;;;;;16.10;85.26;101892.94;5083840;28;19991;-55
2022/07/07 04:25:41;;;;;;;;;;;;;;;16.09;85.07;101891.28;5083183;28;20268;-54
2022/07/07 04:28:06;;;;;;;;;;;;;;;16.03;85.90;101893.88;5082065;28;20014;-54
2022/07/07 04:30:31;;;;;;;;;;;;;;;15.98;86.22;101901.63;5080490;28;19916;-55
2022/07/07 04:32:56;;;;;;;;;;;;;;;15.93;86.69;101904.84;5082214;28;19918;-54
2022/07/07 04:35:22;;;;;;;;;;;;;;;15.89;87.04;101918.75;5081003;28;19989;-55
2022/07/07 04:37:48;;;;;;;;;;;;;;;15.87;86.98;101918.09;5080869;28;20757;-52
2022/07/07 04:40:13;;;;;;;;;;;;;;;15.87;86.99;101923.44;5082415;28;19912;-53
2022/07/07 04:42:38;;;;;;;;;;;;;;;15.88;87.49;101935.84;5080572;28;19961;-54
2022/07/07 04:45:04;;;;;;;;;;;;;;;15.88;87.32;101931.31;5081911;28;20106;-53
2022/07/07 04:47:29;;;;;;;;;;;;;;;15.89;87.65;101924.09;5081456;28;19916;-53
2022/07/07 04:49:54;;;;;;;;;;;;;;;15.86;87.66;101927.97;5079787;28;19920;-54
2022/07/07 04:52:19;;;;;;;;;;;;;;;15.86;87.50;101932.50;5079478;28;20382;-55
2022/07/07 04:54:44;;;;;;;;;;;;;;;15.89;87.03;101930.28;5078993;28;19912;-55
2022/07/07 04:57:10;;;;;;;;;;;;;;;15.91;87.16;101932.81;5088651;28;19916;-55
2022/07/07 04:59:35;;;;;;;;;;;;;;;15.93;87.29;101926.28;5085808;28;20295;-55
2022/07/07 05:02:01;;;;;;;;;;;;;;;15.97;86.52;101934.78;5087232;28;20271;-54
2022/07/07 05:04:26;;;;;;;;;;;;;;;15.99;86.99;101938.94;5091441;28;19912;-55
2022/07/07 05:06:51;;;;;;;;;;;;;;;16.00;87.18;101942.47;5090903;28;20305;-55
2022/07/07 05:09:16;;;;;;;;;;;;;;;16.02;87.45;101946.63;5087109;28;19991;-54
2022/07/07 05:11:41;;;;;;;;;;;;;;;16.05;87.03;101948.09;5080987;28;20279;-54
2022/07/07 05:14:07;;;;;;;;;;;;;;;15.99;87.38;101952.34;5089610;28;20321;-55
2022/07/07 05:16:32;;;;;;;;;;;;;;;16.00;87.71;101961.22;5082319;28;19928;-55
2022/07/07 05:18:57;;;;;;;;;;;;;;;16.03;87.18;101968.88;5089149;28;19907;-55
2022/07/07 05:21:22;;;;;;;;;;;;;;;16.00;87.80;101967.41;5084599;28;19916;-55
2022/07/07 05:23:48;;;;;;;;;;;;;;;16.01;87.48;101958.34;5085439;28;20080;-54
2022/07/07 05:26:13;;;;;;;;;;;;;;;16.00;87.71;101966.56;5086440;28;19919;-55
2022/07/07 05:28:41;;;;;;;;;;;;;;;16.03;87.55;101956.31;5083464;28;20426;-55
2022/07/07 05:31:12;;;;;;;;;;;;;;;16.05;88.31;101969.53;5085106;28;20363;-57
2022/07/07 05:33:38;;;;;;;;;;;;;;;16.01;88.47;101969.06;5085039;28;19969;-55
2022/07/07 05:36:04;;;;;;;;;;;;;;;16.03;88.06;101975.09;5085457;28;20456;-55
2022/07/07 05:38:29;;;;;;;;;;;;;;;16.07;88.22;101979.06;5085627;28;19916;-55
2022/07/07 05:40:54;;;;;;;;;;;;;;;16.10;88.24;101986.75;5082676;28;19968;-57
2022/07/07 05:43:20;;;;;;;;;;;;;;;16.13;88.13;102008.84;5085729;28;19912;-56
2022/07/07 05:45:45;;;;;;;;;;;;;;;16.10;87.93;101992.09;5081321;28;19957;-57
2022/07/07 05:48:10;;;;;;;;;;;;;;;16.07;87.70;102002.34;5082808;28;19919;-56
2022/07/07 05:50:35;;;;;;;;;;;;;;;16.03;87.99;102009.09;5084763;28;19953;-57
2022/07/07 05:53:01;;;;;;;;;;;;;;;16.01;88.37;102011.09;5083721;28;20098;-57
2022/07/07 05:55:26;;;;;;;;;;;;;;;16.03;88.17;102009.91;5085465;28;19926;-56
2022/07/07 05:57:52;;;;;;;;;;;;;;;16.06;87.52;102011.41;5084797;28;19934;-56
2022/07/07 06:00:17;;;;;;;;;;;;;;;16.09;87.51;102016.41;5083742;28;19912;-57
2022/07/07 06:02:42;;;;;;;;;;;;;;;16.10;87.43;102026.13;5084094;28;19923;-55
2022/07/07 06:05:08;;;;;;;;;;;;;;;16.12;87.44;102021.41;5084369;28;20398;-57
2022/07/07 06:07:33;;;;;;;;;;;;;;;16.14;87.24;102026.59;5083967;28;19912;-55
2022/07/07 06:09:58;;;;;;;;;;;;;;;16.16;86.80;102036.13;5085248;28;20057;-55
2022/07/07 06:12:23;;;;;;;;;;;;;;;16.20;86.59;102033.94;5083420;28;19916;-55
2022/07/07 06:14:48;;;;;;;;;;;;;;;16.21;85.83;102039.13;5083889;28;19998;-55
2022/07/07 06:17:13;;;;;;;;;;;;;;;16.23;85.49;102052.34;5084397;28;19912;-56
2022/07/07 06:19:39;;;;;;;;;;;;;;;16.26;84.80;102046.63;5084073;28;19919;-56
2022/07/07 06:22:04;;;;;;;;;;;;;;;16.26;84.56;102052.81;5085560;28;19991;-57
2022/07/07 06:24:29;;;;;;;;;;;;;;;16.28;83.96;102049.94;5085116;28;19911;-57
2022/07/07 06:26:55;;;;;;;;;;;;;;;16.30;83.71;102058.66;5083554;28;19965;-56
2022/07/07 06:29:20;;;;;;;;;;;;;;;16.35;83.45;102067.81;5085429;28;20501;-57
2022/07/07 06:31:45;;;;;;;;;;;;;;;16.36;82.65;102069.50;5081286;28;19962;-55
2022/07/07 06:34:10;;;;;;;;;;;;;;;16.41;82.44;102072.47;5084852;28;20248;-55
2022/07/07 06:36:36;;;;;;;;;;;;;;;16.41;82.05;102071.63;5084108;28;20322;-57
2022/07/07 06:39:01;;;;;;;;;;;;;;;16.43;81.55;102086.53;5086025;28;19912;-56
2022/07/07 06:41:33;;;;;;;;;;;;;;;16.39;80.70;102103.97;5088035;28;19912;-55
2022/07/07 06:43:58;;;;;;;;;;;;;;;16.21;80.43;102098.09;5087770;28;19912;-55
2022/07/07 06:46:23;;;;;;;;;;;;;;;16.10;80.51;102090.44;5086865;28;20295;-54
2022/07/07 06:48:48;;;;;;;;;;;;;;;16.07;80.68;102098.81;5081043;28;20394;-56
2022/07/07 06:51:14;;;;;;;;;;;;;;;16.05;80.29;102104.34;5085768;28;19912;-53
2022/07/07 06:53:39;;;;;;;;;;;;;;;16.01;80.56;102104.88;5087095;28;19912;-57
2022/07/07 06:56:04;;;;;;;;;;;;;;;15.98;80.05;102108.75;5082939;28;19969;-54
2022/07/07 06:58:29;;;;;;;;;;;;;;;15.95;80.04;102110.97;5080004;28;20050;-56
2022/07/07 07:00:55;;;;;;;;;;;;;;;16.01;79.98;102102.22;5084236;28;19938;-57
2022/07/07 07:03:20;;;;;;;;;;;;;;;16.05;80.15;102107.03;5087157;28;19908;-57
2022/07/07 07:05:45;;;;;;;;;;;;;;;16.11;80.13;102102.81;5090388;28;19908;-56
2022/07/07 07:08:10;;;;;;;;;;;;;;;16.16;79.81;102113.00;5086969;28;19907;-54
2022/07/07 07:10:35;;;;;;;;;;;;;;;16.25;79.75;102104.75;5085415;28;19920;-57
2022/07/07 07:13:01;;;;;;;;;;;;;;;16.27;79.63;102109.94;5087139;28;19978;-56
2022/07/07 07:15:26;;;;;;;;;;;;;;;16.37;79.61;102107.84;5086404;28;19915;-55
2022/07/07 07:17:51;;;;;;;;;;;;;;;16.49;79.40;102110.97;5082919;28;20290;-56
2022/07/07 07:20:16;;;;;;;;;;;;;;;16.63;78.67;102112.88;5081113;28;19935;-57
2022/07/07 07:22:41;;;;;;;;;;;;;;;16.63;78.38;102115.56;5082154;28;19926;-56
2022/07/07 07:25:07;;;;;;;;;;;;;;;16.71;78.35;102107.47;5086656;28;19938;-57
2022/07/07 07:27:33;;;;;;;;;;;;;;;16.79;78.10;102120.84;5088507;28;19969;-55
2022/07/07 07:29:58;;;;;;;;;;;;;;;16.88;77.97;102121.59;5088002;28;20193;-56
2022/07/07 07:32:23;;;;;;;;;;;;;;;16.96;77.65;102133.09;5080086;28;20007;-57
2022/07/07 07:34:49;;;;;;;;;;;;;;;17.06;77.60;102143.59;5086177;28;19911;-55
2022/07/07 07:37:14;;;;;;;;;;;;;;;17.11;77.06;102145.72;5088154;28;19954;-57
2022/07/07 07:39:39;;;;;;;;;;;;;;;17.12;76.65;102144.72;5087986;28;19913;-56
2022/07/07 07:42:04;;;;;;;;;;;;;;;17.15;77.03;102147.03;5088094;28;20481;-57
2022/07/07 07:47:13;;;;;;;;;;;;;;;17.30;76.42;102153.25;5087989;28;19989;-55
2022/07/07 07:49:38;;;;;;;;;;;;;;;17.27;75.91;102148.25;5086969;28;20375;-56
2022/07/07 07:52:04;;;;;;;;;;;;;;;17.23;75.59;102152.31;5086290;28;19916;-54
2022/07/07 07:54:29;;;;;;;;;;;;;;;17.23;75.10;102155.00;5088660;28;19947;-56
2022/07/07 07:56:54;;;;;;;;;;;;;;;17.09;74.95;102158.50;5087403;28;20371;-56
2022/07/07 07:59:19;;;;;;;;;;;;;;;16.82;75.69;102165.25;5089109;28;20325;-57
2022/07/07 08:01:45;;;;;;;;;;;;;;;16.69;76.52;102158.63;5086270;28;19912;-57
2022/07/07 08:04:10;;;;;;;;;;;;;;;16.64;77.00;102160.13;5086289;28;19920;-55
2022/07/07 08:06:35;;;;;;;;;;;;;;;16.57;77.41;102167.22;5088754;28;20477;-57
2022/07/07 08:09:00;;;;;;;;;;;;;;;16.59;77.49;102157.16;5086818;28;19908;-56
2022/07/07 08:11:25;;;;;;;;;;;;;;;16.61;77.51;102157.81;5087658;28;20365;-55
2022/07/07 08:13:50;;;;;;;;;;;;;;;16.50;77.48;102171.66;5085226;28;19912;-57
2022/07/07 08:16:16;;;;;;;;;;;;;;;16.46;77.77;102184.53;5088247;28;19919;-57
2022/07/07 08:18:41;;;;;;;;;;;;;;;16.44;77.96;102178.53;5083490;28;20387;-55
2022/07/07 08:21:06;;;;;;;;;;;;;;;16.34;77.84;102173.41;5087268;28;19919;-55
2022/07/07 08:23:31;;;;;;;;;;;;;;;16.33;77.77;102182.44;5088316;28;19908;-57
2022/07/07 08:25:56;;;;;;;;;;;;;;;16.36;77.81;102187.47;5086115;28;20379;-56
2022/07/07 08:28:22;;;;;;;;;;;;;;;16.42;77.97;102184.06;5087458;28;19918;-56
2022/07/07 08:30:47;;;;;;;;;;;;;;;16.50;77.99;102188.56;5086000;28;20018;-54
2022/07/07 08:33:12;;;;;;;;;;;;;;;16.57;77.40;102186.00;5087960;28;19908;-55
2022/07/07 08:35:37;;;;;;;;;;;;;;;16.64;77.27;102184.28;5090283;28;19927;-56
2022/07/07 08:38:03;;;;;;;;;;;;;;;16.64;76.90;102186.97;5090320;28;19908;-55
2022/07/07 08:40:28;;;;;;;;;;;;;;;16.72;76.94;102186.94;5088757;28;19919;-56
2022/07/07 08:42:53;;;;;;;;;;;;;;;16.85;76.94;102184.50;5090612;28;19938;-53
2022/07/07 08:45:18;;;;;;;;;;;;;;;17.03;76.10;102185.03;5090618;28;19963;-56
2022/07/07 08:47:44;;;;;;;;;;;;;;;17.20;76.36;102182.22;5092102;28;19934;-56
2022/07/07 08:50:09;;;;;;;;;;;;;;;17.43;76.25;102180.31;5090320;28;19958;-57
2022/07/07 08:52:34;;;;;;;;;;;;;;;17.59;75.46;102184.69;5091001;28;19912;-54
2022/07/07 08:55:00;;;;;;;;;;;;;;;17.81;75.25;102188.34;5090481;28;19918;-56
2022/07/07 08:57:25;;;;;;;;;;;;;;;17.91;74.87;102186.19;5091693;28;19912;-57
2022/07/07 08:59:51;;;;;;;;;;;;;;;17.79;73.93;102215.41;5090135;28;19915;-56
2022/07/07 09:02:16;;;;;;;;;;;;;;;17.56;74.13;102210.06;5090428;28;19995;-56
2022/07/07 09:04:41;;;;;;;;;;;;;;;17.52;74.63;102208.75;5090579;28;19964;-57
2022/07/07 09:07:07;;;;;;;;;;;;;;;17.55;74.75;102212.94;5091595;28;20382;-57
2022/07/07 09:09:38;;;;;;;;;;;;;;;17.57;74.30;102213.59;5090790;28;19937;-54
2022/07/07 09:12:04;;;;;;;;;;;;;;;17.48;73.72;102225.44;5091190;28;19949;-56
2022/07/07 09:14:38;;;;;;;;;;;;;;;17.41;73.72;102225.31;5090592;28;20018;-57
2022/07/07 09:17:13;;;;;;;;;;;;;;;17.31;73.44;102233.63;5086339;28;20332;-57
2022/07/07 09:19:38;;;;;;;;;;;;;;;17.28;73.47;102225.94;5091238;28;19919;-55
2022/07/07 09:22:03;;;;;;;;;;;;;;;17.23;73.48;102236.38;5089319;28;20315;-54
2022/07/07 09:24:29;;;;;;;;;;;;;;;17.18;73.44;102235.25;5091199;28;20080;-54
2022/07/07 09:26:54;;;;;;;;;;;;;;;17.21;73.54;102229.53;5090430;28;20306;-54
2022/07/07 09:29:20;;;;;;;;;;;;;;;17.26;73.84;102243.22;5090525;28;20002;-55
2022/07/07 09:32:03;;;;;;;;;;;;;;;17.35;73.36;102239.50;5084001;28;19955;-57
2022/07/07 09:34:29;;;;;;;;;;;;;;;17.50;73.62;102236.81;5088701;28;19918;-57
2022/07/07 09:39:41;;;;;;;;;;;;;;;17.75;73.63;102256.25;5091073;28;19919;-54
2022/07/07 09:42:16;;;;;;;;;;;;;;;17.80;73.30;102245.78;5089178;28;19927;-54
2022/07/07 09:44:41;;;;;;;;;;;;;;;17.76;72.92;102256.09;5064092;28;19961;-53
2022/07/07 09:47:09;;;;;;;;;;;;;;;17.77;72.89;102249.69;5088850;28;19916;-54
2022/07/07 09:49:40;;;;;;;;;;;;;;;17.86;73.22;102258.50;5086798;28;19947;-51
2022/07/07 09:52:15;;;;;;;;;;;;;;;17.91;72.86;102270.34;5090151;28;19943;-54
2022/07/07 09:54:45;;;;;;;;;;;;;;;18.06;73.68;102262.31;5090225;28;19908;-55
2022/07/07 09:57:10;;;;;;;;;;;;;;;18.27;73.44;102270.47;5090789;28;19912;-51
2022/07/07 09:59:36;;;;;;;;;;;;;;;18.31;72.09;102273.63;5088884;28;19923;-54
2022/07/07 10:02:01;;;;;;;;;;;;;;;18.27;71.60;102278.53;5083120;28;19957;-55
2022/07/07 10:04:26;;;;;;;;;;;;;;;18.16;71.11;102283.53;5085174;28;19919;-51
2022/07/07 10:06:52;;;;;;;;;;;;;;;18.01;71.43;102280.03;5084462;28;19915;-55
2022/07/07 10:09:18;;;;;;;;;;;;;;;17.99;71.54;102288.28;5083885;28;20429;-55
2022/07/07 10:11:45;;;;;;;;;;;;;;;17.96;71.66;102294.03;5081242;28;19919;-55
2022/07/07 10:14:14;;;;;;;;;;;;;;;17.90;72.07;102302.78;5089525;28;19921;-53
2022/07/07 10:16:40;;;;;;;;;;;;;;;17.83;72.17;102302.69;5089371;28;20384;-55
2022/07/07 10:19:06;;;;;;;;;;;;;;;17.76;72.56;102298.25;5088999;28;19916;-52
2022/07/07 10:21:32;;;;;;;;;;;;;;;17.74;72.88;102305.66;5087960;28;20042;-54
2022/07/07 10:23:58;;;;;;;;;;;;;;;17.81;73.99;102306.59;5092478;28;20249;-54
2022/07/07 10:26:36;;;;;;;;;;;;;;;17.95;74.02;102313.84;5088811;28;20406;-54
2022/07/07 10:29:02;;;;;;;;;;;;;;;18.13;73.79;102311.63;5083529;28;19912;-54
2022/07/07 10:31:28;;;;;;;;;;;;;;;18.24;73.63;102313.06;5088187;28;19950;-53
2022/07/07 10:33:54;;;;;;;;;;;;;;;18.33;73.66;102316.47;5087320;28;19966;-55
2022/07/07 10:36:19;;;;;;;;;;;;;;;18.38;73.34;102322.13;5089083;28;19967;-56
2022/07/07 10:38:45;;;;;;;;;;;;;;;18.38;73.02;102324.81;5089004;28;19908;-54
2022/07/07 10:41:11;;;;;;;;;;;;;;;18.35;72.82;102339.47;5088541;28;19955;-55
2022/07/07 10:43:41;;;;;;;;;;;;;;;18.33;72.24;102332.59;5086328;28;19951;-54
2022/07/07 10:46:07;;;;;;;;;;;;;;;18.15;72.39;102347.25;5086533;28;19969;-54
2022/07/07 10:48:42;;;;;;;;;;;;;;;18.05;72.97;102346.69;5083818;28;20379;-53
2022/07/07 10:51:18;;;;;;;;;;;;;;;17.99;73.71;102351.97;5082597;28;19918;-54
2022/07/07 10:53:53;;;;;;;;;;;;;;;17.97;73.83;102354.81;5081007;28;20212;-54
2022/07/07 10:56:18;;;;;;;;;;;;;;;18.01;74.23;102355.28;5087926;28;19916;-55
2022/07/07 10:58:44;;;;;;;;;;;;;;;17.99;73.93;102346.56;5089005;28;20294;-56
2022/07/07 11:01:09;;;;;;;;;;;;;;;17.99;74.32;102351.97;5087239;28;19920;-54
2022/07/07 11:03:37;;;;;;;;;;;;;;;18.09;73.84;102363.28;5081598;28;20079;-53
2022/07/07 11:06:03;;;;;;;;;;;;;;;18.14;73.76;102361.69;5082807;28;20043;-55
2022/07/07 11:08:35;;;;;;;;;;;;;;;18.13;73.61;102357.34;5087947;28;20257;-51
2022/07/07 11:11:01;;;;;;;;;;;;;;;18.10;73.67;102365.78;5087780;28;20201;-55
2022/07/07 11:13:31;;;;;;;;;;;;;;;18.01;73.71;102377.63;5086885;28;20605;-54
2022/07/07 11:16:16;;;;;;;;;;;;;;;17.95;74.32;102378.38;5089712;28;19927;-55
2022/07/07 11:18:42;;;;;;;;;;;;;;;17.88;74.82;102388.16;5088296;28;19951;-54
2022/07/07 11:21:08;;;;;;;;;;;;;;;17.87;75.22;102391.84;5086687;28;19911;-55
2022/07/07 11:23:50;;;;;;;;;;;;;;;17.94;75.68;102398.19;5087146;28;20282;-55
2022/07/07 11:26:20;;;;;;;;;;;;;;;18.12;75.56;102395.16;5086170;28;19959;-54
2022/07/07 11:28:45;;;;;;;;;;;;;;;18.16;75.22;102397.31;5087745;28;19991;-52
2022/07/07 11:31:12;;;;;;;;;;;;;;;18.08;75.37;102405.47;5087828;28;20352;-54
2022/07/07 11:33:39;;;;;;;;;;;;;;;18.06;75.87;102406.66;5088421;28;19998;-52
2022/07/07 11:36:11;;;;;;;;;;;;;;;17.97;75.86;102405.91;5086990;28;19923;-54
2022/07/07 11:38:36;;;;;;;;;;;;;;;17.99;76.71;102405.72;5086838;28;20029;-54
2022/07/07 11:41:01;;;;;;;;;;;;;;;18.10;77.60;102406.09;5086695;28;20352;-54
2022/07/07 11:43:26;;;;;;;;;;;;;;;18.24;77.54;102405.31;5088155;28;20279;-54
2022/07/07 11:45:51;;;;;;;;;;;;;;;18.30;77.75;102408.28;5087298;28;19915;-55
2022/07/07 11:48:17;;;;;;;;;;;;;;;18.27;77.15;102422.94;5085055;28;19961;-53
2022/07/07 11:50:42;;;;;;;;;;;;;;;18.15;76.74;102417.16;5084786;28;19920;-53
2022/07/07 11:53:07;;;;;;;;;;;;;;;18.13;76.20;102416.50;5086566;28;19912;-51
2022/07/07 11:55:33;;;;;;;;;;;;;;;17.99;76.27;102425.38;5087911;28;20261;-55
2022/07/07 11:57:58;;;;;;;;;;;;;;;18.01;76.31;102423.34;5087433;28;19915;-54
2022/07/07 12:00:27;;;;;;;;;;;;;;;18.07;76.36;102425.28;5089638;28;19912;-55
2022/07/07 12:02:53;;;;;;;;;;;;;;;18.23;76.56;102430.53;5086583;28;20363;-54
2022/07/07 12:05:20;;;;;;;;;;;;;;;18.35;76.72;102430.91;5087472;28;19926;-52
2022/07/07 12:07:52;;;;;;;;;;;;;;;18.44;76.03;102427.13;5085592;28;19908;-55
2022/07/07 12:10:21;;;;;;;;;;;;;;;18.52;75.68;102424.38;5088356;28;19998;-55
2022/07/07 12:12:56;;;;;;;;;;;;;;;18.66;75.60;102428.09;5086302;28;19942;-54
2022/07/07 12:15:22;;;;;;;;;;;;;;;18.86;75.37;102428.41;5085626;28;20379;-54
2022/07/07 12:17:47;;;;;;;;;;;;;;;18.97;74.37;102432.47;5088078;28;19912;-53
2022/07/07 12:20:16;;;;;;;;;;;;;;;18.97;73.06;102437.84;5087322;28;20402;-54
2022/07/07 12:22:43;;;;;;;;;;;;;;;18.92;72.71;102443.78;5077989;28;19908;-53
2022/07/07 12:25:09;;;;;;;;;;;;;;;18.87;71.32;102449.75;5087053;28;19931;-55
2022/07/07 12:27:34;;;;;;;;;;;;;;;18.85;71.51;102438.31;5088308;28;19986;-55
2022/07/07 12:30:01;;;;;;;;;;;;;;;18.93;71.41;102448.16;5086372;28;20010;-52
2022/07/07 12:32:26;;;;;;;;;;;;;;;19.04;71.42;102439.59;5085197;28;19973;-55
2022/07/07 12:34:51;;;;;;;;;;;;;;;19.15;71.43;102439.13;5087558;28;20430;-55